createdAt,value
2022-10-30T00:00:05.770Z,5.18
2022-10-30T00:02:10.661Z,4.38
2022-10-30T00:04:12.366Z,5.15
2022-10-30T00:06:14.030Z,6.03
2022-10-30T00:08:17.829Z,5.50
2022-10-30T00:10:19.446Z,3.20
2022-10-30T00:12:21.055Z,4.22
2022-10-30T00:14:22.731Z,3.97
2022-10-30T00:16:24.411Z,3.95
2022-10-30T00:18:26.014Z,3.70
2022-10-30T00:20:27.758Z,3.70
2022-10-30T00:22:29.348Z,4.00
2022-10-30T00:24:30.966Z,4.50
2022-10-30T00:26:33.375Z,3.63
2022-10-30T00:28:35.059Z,3.70
2022-10-30T00:30:37.088Z,2.90
2022-10-30T00:32:38.711Z,4.63
2022-10-30T00:34:40.350Z,3.45
2022-10-30T00:36:42.019Z,2.42
2022-10-30T00:38:44.023Z,4.28
2022-10-30T00:40:45.671Z,3.88
2022-10-30T00:42:47.301Z,3.63
2022-10-30T00:44:51.130Z,3.42
2022-10-30T00:46:52.710Z,3.50
2022-10-30T00:48:58.576Z,3.75
2022-10-30T00:51:01.369Z,2.95
2022-10-30T00:53:10.045Z,3.35
2022-10-30T00:55:18.626Z,3.40
2022-10-30T00:57:20.662Z,3.28
2022-10-30T00:59:28.999Z,2.97
2022-10-30T01:01:32.981Z,4.45
2022-10-30T01:03:36.154Z,4.78
2022-10-30T01:05:38.812Z,4.75
2022-10-30T01:07:40.475Z,4.65
2022-10-30T01:09:42.601Z,3.58
2022-10-30T01:11:44.259Z,4.40
2022-10-30T01:13:47.445Z,4.15
2022-10-30T01:16:14.738Z,3.42
2022-10-30T01:18:48.583Z,4.05
2022-10-30T01:21:13.302Z,3.10
2022-10-30T01:23:20.840Z,3.33
2022-10-30T01:26:13.587Z,4.10
2022-10-30T01:28:53.309Z,3.47
2022-10-30T01:31:13.214Z,2.85
2022-10-30T01:33:29.984Z,3.97
2022-10-30T01:35:50.873Z,3.58
2022-10-30T01:37:56.268Z,3.53
2022-10-30T01:40:09.142Z,3.90
2022-10-30T01:42:48.398Z,2.92
2022-10-30T01:44:50.211Z,3.70
2022-10-30T01:47:01.773Z,3.25
2022-10-30T01:49:15.536Z,2.97
2022-10-30T01:51:35.730Z,3.85
2022-10-30T01:53:53.658Z,2.60
2022-10-30T01:56:10.190Z,2.95
2022-10-30T01:58:27.458Z,3.65
2022-10-30T02:00:29.160Z,4.28
2022-10-30T02:02:31.491Z,2.50
2022-10-30T02:04:33.593Z,3.45
2022-10-30T02:06:36.692Z,2.45
2022-10-30T02:08:38.857Z,3.05
2022-10-30T02:10:43.042Z,3.33
2022-10-30T02:12:44.903Z,3.28
2022-10-30T02:14:49.548Z,2.38
2022-10-30T02:16:53.332Z,2.63
2022-10-30T02:18:57.817Z,2.70
2022-10-30T02:20:59.426Z,2.15
2022-10-30T02:23:01.778Z,3.95
2022-10-30T02:25:03.990Z,2.55
2022-10-30T02:27:05.639Z,3.08
2022-10-30T02:29:07.297Z,3.13
2022-10-30T02:31:08.979Z,3.85
2022-10-30T02:33:11.432Z,2.50
2022-10-30T02:35:13.273Z,2.95
2022-10-30T02:37:14.944Z,3.83
2022-10-30T02:39:16.643Z,2.97
2022-10-30T02:41:18.246Z,3.30
2022-10-30T02:43:19.939Z,3.00
2022-10-30T02:45:21.732Z,2.85
2022-10-30T02:47:23.363Z,3.20
2022-10-30T02:49:25.132Z,2.97
2022-10-30T02:51:26.737Z,3.47
2022-10-30T02:53:28.835Z,3.40
2022-10-30T02:55:30.524Z,4.05
2022-10-30T02:57:32.201Z,3.78
2022-10-30T02:59:34.028Z,3.30
2022-10-30T03:01:35.726Z,3.33
2022-10-30T03:03:37.698Z,2.97
2022-10-30T03:05:39.314Z,3.58
2022-10-30T03:07:40.945Z,3.00
2022-10-30T03:09:42.577Z,3.28
2022-10-30T03:11:50.520Z,3.47
2022-10-30T03:13:52.295Z,2.80
2022-10-30T03:15:59.780Z,3.15
2022-10-30T03:18:01.563Z,2.95
2022-10-30T03:20:03.309Z,3.53
2022-10-30T03:22:04.943Z,3.08
2022-10-30T03:24:06.624Z,2.63
2022-10-30T03:26:08.544Z,4.43
2022-10-30T03:28:10.180Z,2.67
2022-10-30T03:30:12.141Z,3.80
2022-10-30T03:32:13.840Z,3.13
2022-10-30T03:34:15.567Z,2.72
2022-10-30T03:36:17.226Z,3.15
2022-10-30T03:38:19.044Z,2.58
2022-10-30T03:40:20.678Z,3.58
2022-10-30T03:42:22.516Z,2.90
2022-10-30T03:44:24.194Z,3.17
2022-10-30T03:46:25.765Z,2.78
2022-10-30T03:48:30.160Z,3.08
2022-10-30T03:50:32.494Z,3.00
2022-10-30T03:52:34.100Z,3.50
2022-10-30T03:54:35.693Z,2.47
2022-10-30T03:56:37.302Z,4.03
2022-10-30T03:58:39.004Z,4.22
2022-10-30T04:00:40.723Z,2.90
2022-10-30T04:02:49.508Z,3.28
2022-10-30T04:04:51.151Z,3.10
2022-10-30T04:06:52.782Z,3.45
2022-10-30T04:08:55.476Z,2.63
2022-10-30T04:10:57.237Z,2.63
2022-10-30T04:13:03.787Z,3.47
2022-10-30T04:15:07.116Z,3.10
2022-10-30T04:19:10.296Z,2.85
2022-10-30T04:21:12.035Z,4.38
2022-10-30T04:23:16.123Z,2.88
2022-10-30T04:25:17.719Z,2.60
2022-10-30T04:27:20.437Z,3.50
2022-10-30T04:29:22.125Z,3.13
2022-10-30T04:31:24.019Z,3.22
2022-10-30T04:33:25.821Z,2.85
2022-10-30T04:35:30.237Z,3.53
2022-10-30T04:37:31.838Z,3.22
2022-10-30T04:39:33.632Z,2.40
2022-10-30T04:41:35.238Z,2.85
2022-10-30T04:43:36.850Z,2.60
2022-10-30T04:45:39.262Z,2.75
2022-10-30T04:47:40.914Z,3.03
2022-10-30T04:49:42.513Z,3.78
2022-10-30T04:51:46.403Z,2.92
2022-10-30T04:53:48.098Z,3.05
2022-10-30T04:55:53.699Z,3.17
2022-10-30T04:57:57.709Z,2.63
2022-10-30T04:59:59.613Z,3.22
2022-10-30T05:02:01.324Z,2.80
2022-10-30T05:04:03.098Z,2.78
2022-10-30T05:06:07.733Z,2.30
2022-10-30T05:08:09.972Z,2.60
2022-10-30T05:10:18.399Z,3.05
2022-10-30T05:12:20.995Z,2.25
2022-10-30T05:14:22.597Z,3.58
2022-10-30T05:16:24.309Z,2.80
2022-10-30T05:18:25.880Z,3.15
2022-10-30T05:20:27.536Z,3.08
2022-10-30T05:22:29.126Z,2.55
2022-10-30T05:24:30.752Z,2.63
2022-10-30T05:26:32.324Z,2.80
2022-10-30T05:28:33.980Z,2.55
2022-10-30T05:30:36.195Z,2.53
2022-10-30T05:32:40.360Z,2.05
2022-10-30T05:34:42.038Z,2.72
2022-10-30T05:36:43.634Z,2.60
2022-10-30T05:38:46.734Z,2.70
2022-10-30T05:40:48.356Z,3.00
2022-10-30T05:42:50.608Z,2.72
2022-10-30T05:45:01.048Z,2.30
2022-10-30T05:47:03.258Z,3.78
2022-10-30T05:49:04.968Z,2.53
2022-10-30T05:51:08.518Z,2.78
2022-10-30T05:53:10.400Z,3.00
2022-10-30T05:55:12.057Z,3.58
2022-10-30T05:57:13.637Z,3.00
2022-10-30T05:59:15.223Z,2.53
2022-10-30T06:01:17.075Z,3.05
2022-10-30T06:03:18.852Z,3.17
2022-10-30T06:05:20.432Z,2.40
2022-10-30T06:07:22.307Z,2.97
2022-10-30T06:09:23.953Z,3.08
2022-10-30T06:11:25.611Z,2.97
2022-10-30T06:13:27.356Z,3.33
2022-10-30T06:15:30.031Z,2.75
2022-10-30T06:17:32.129Z,3.85
2022-10-30T06:19:33.758Z,2.67
2022-10-30T06:21:35.996Z,3.50
2022-10-30T06:23:37.600Z,3.15
2022-10-30T06:25:41.285Z,3.15
2022-10-30T06:27:43.130Z,2.42
2022-10-30T06:29:47.314Z,2.80
2022-10-30T06:31:48.896Z,3.20
2022-10-30T06:33:50.612Z,2.42
2022-10-30T06:35:52.188Z,2.97
2022-10-30T06:37:55.168Z,2.38
2022-10-30T06:39:56.845Z,2.75
2022-10-30T06:41:58.394Z,3.60
2022-10-30T06:44:00.173Z,3.33
2022-10-30T06:46:01.805Z,2.40
2022-10-30T06:48:03.723Z,3.30
2022-10-30T06:50:10.340Z,3.03
2022-10-30T06:52:12.083Z,2.33
2022-10-30T06:54:13.751Z,2.65
2022-10-30T06:56:15.339Z,2.45
2022-10-30T06:58:16.916Z,2.75
2022-10-30T07:00:18.543Z,2.78
2022-10-30T07:02:20.352Z,3.22
2022-10-30T07:04:22.116Z,2.88
2022-10-30T07:06:23.743Z,1.92
2022-10-30T07:08:25.332Z,3.22
2022-10-30T07:10:27.043Z,3.42
2022-10-30T07:12:28.615Z,2.53
2022-10-30T07:14:30.223Z,2.85
2022-10-30T07:16:31.781Z,2.60
2022-10-30T07:18:33.362Z,2.78
2022-10-30T07:20:35.145Z,3.13
2022-10-30T07:22:39.904Z,2.83
2022-10-30T07:24:41.462Z,2.60
2022-10-30T07:26:43.050Z,2.95
2022-10-30T07:28:44.867Z,3.17
2022-10-30T07:30:46.431Z,3.33
2022-10-30T07:32:58.174Z,3.47
2022-10-30T07:35:00.014Z,3.63
2022-10-30T07:37:01.630Z,2.88
2022-10-30T07:39:03.413Z,4.00
2022-10-30T07:41:05.065Z,4.03
2022-10-30T07:43:06.775Z,3.95
2022-10-30T07:47:11.447Z,3.22
2022-10-30T07:49:13.081Z,3.55
2022-10-30T07:51:15.486Z,3.22
2022-10-30T07:53:17.101Z,3.03
2022-10-30T07:55:18.794Z,3.60
2022-10-30T07:57:20.379Z,3.13
2022-10-30T07:59:21.983Z,2.33
2022-10-30T08:01:23.664Z,3.03
2022-10-30T08:03:25.378Z,3.97
2022-10-30T08:05:28.954Z,4.55
2022-10-30T08:07:36.493Z,3.35
2022-10-30T08:09:38.071Z,3.13
2022-10-30T08:11:39.620Z,3.10
2022-10-30T08:13:41.319Z,4.15
2022-10-30T08:15:43.269Z,3.47
2022-10-30T08:17:46.737Z,3.13
2022-10-30T08:19:48.450Z,3.17
2022-10-30T08:21:50.121Z,3.65
2022-10-30T08:23:51.771Z,3.20
2022-10-30T08:25:53.362Z,2.78
2022-10-30T08:28:07.076Z,3.75
2022-10-30T08:30:09.053Z,3.05
2022-10-30T08:32:10.652Z,3.42
2022-10-30T08:34:12.713Z,3.92
2022-10-30T08:36:14.304Z,4.05
2022-10-30T08:38:16.434Z,3.28
2022-10-30T08:40:18.092Z,3.65
2022-10-30T08:42:19.701Z,3.17
2022-10-30T08:44:21.342Z,3.90
2022-10-30T08:46:22.906Z,3.38
2022-10-30T08:48:24.521Z,2.78
2022-10-30T08:50:26.790Z,3.63
2022-10-30T08:52:28.385Z,3.00
2022-10-30T08:54:29.977Z,3.33
2022-10-30T08:56:31.542Z,2.97
2022-10-30T08:58:33.180Z,2.92
2022-10-30T09:00:35.668Z,2.83
2022-10-30T09:02:39.612Z,2.58
2022-10-30T09:04:41.331Z,1.77
2022-10-30T09:06:42.968Z,2.55
2022-10-30T09:08:46.270Z,2.17
2022-10-30T09:10:47.887Z,2.00
2022-10-30T09:12:54.989Z,2.45
2022-10-30T09:14:56.624Z,2.25
2022-10-30T09:16:58.265Z,2.10
2022-10-30T09:18:59.867Z,1.42
2022-10-30T09:21:04.644Z,2.13
2022-10-30T09:23:06.952Z,1.33
2022-10-30T09:25:09.099Z,1.65
2022-10-30T09:27:10.776Z,1.30
2022-10-30T09:29:12.326Z,1.77
2022-10-30T09:31:14.038Z,1.75
2022-10-30T09:33:15.694Z,2.72
2022-10-30T09:35:17.402Z,1.70
2022-10-30T09:37:19.323Z,1.98
2022-10-30T09:39:20.984Z,2.42
2022-10-30T09:41:41.145Z,1.77
2022-10-30T09:44:10.553Z,2.17
2022-10-30T09:46:36.606Z,1.42
2022-10-30T09:48:47.194Z,1.67
2022-10-30T09:51:10.040Z,1.80
2022-10-30T09:53:17.121Z,2.53
2022-10-30T09:55:27.768Z,1.80
2022-10-30T09:58:01.897Z,1.40
2022-10-30T10:00:20.792Z,1.60
2022-10-30T10:02:36.570Z,1.40
2022-10-30T10:04:43.001Z,1.98
2022-10-30T10:06:48.060Z,1.63
2022-10-30T10:09:00.498Z,1.52
2022-10-30T10:11:06.345Z,1.48
2022-10-30T10:13:16.592Z,1.35
2022-10-30T10:15:29.654Z,2.67
2022-10-30T10:17:36.493Z,2.08
2022-10-30T10:19:41.088Z,1.75
2022-10-30T10:22:03.288Z,1.50
2022-10-30T10:24:19.526Z,1.13
2022-10-30T10:26:28.131Z,1.65
2022-10-30T10:28:44.620Z,1.25
2022-10-30T10:30:55.439Z,2.22
2022-10-30T10:33:02.951Z,1.83
2022-10-30T10:35:37.409Z,2.30
2022-10-30T10:37:40.328Z,2.00
2022-10-30T10:39:56.212Z,2.15
2022-10-30T10:42:19.491Z,1.48
2022-10-30T10:44:54.561Z,1.55
2022-10-30T10:47:02.930Z,1.17
2022-10-30T10:49:54.889Z,1.90
2022-10-30T10:52:09.910Z,1.10
2022-10-30T10:54:23.601Z,1.13
2022-10-30T10:56:34.344Z,1.92
2022-10-30T10:58:48.699Z,1.27
2022-10-30T11:00:50.385Z,1.10
2022-10-30T11:02:59.570Z,0.75
2022-10-30T11:05:07.635Z,1.50
2022-10-30T11:07:33.944Z,0.93
2022-10-30T11:09:35.594Z,1.35
2022-10-30T11:11:37.308Z,0.85
2022-10-30T11:13:44.085Z,1.02
2022-10-30T11:16:08.869Z,1.00
2022-10-30T11:18:11.279Z,0.90
2022-10-30T11:20:20.091Z,0.90
2022-10-30T11:22:33.933Z,0.70
2022-10-30T11:24:36.439Z,1.38
2022-10-30T11:26:38.040Z,1.10
2022-10-30T11:28:46.338Z,0.88
2022-10-30T11:30:47.904Z,1.02
2022-10-30T11:32:49.527Z,0.88
2022-10-30T11:35:02.076Z,1.02
2022-10-30T11:37:06.085Z,0.90
2022-10-30T11:39:20.012Z,0.90
2022-10-30T11:41:21.608Z,1.08
2022-10-30T11:43:24.162Z,0.70
2022-10-30T11:45:28.735Z,0.80
2022-10-30T11:49:47.690Z,0.82
2022-10-30T11:51:49.278Z,0.80
2022-10-30T11:53:51.110Z,0.85
2022-10-30T11:55:52.748Z,0.85
2022-10-30T11:57:58.084Z,0.82
2022-10-30T12:00:05.605Z,0.95
2022-10-30T12:02:22.644Z,0.82
2022-10-30T12:04:27.419Z,1.02
2022-10-30T12:06:30.180Z,0.70
2022-10-30T12:08:31.744Z,0.60
2022-10-30T12:10:42.124Z,0.60
2022-10-30T12:12:43.814Z,0.70
2022-10-30T12:14:45.648Z,0.60
2022-10-30T12:16:51.803Z,1.38
2022-10-30T12:18:59.563Z,0.70
2022-10-30T12:21:02.370Z,0.70
2022-10-30T12:23:11.315Z,1.33
2022-10-30T12:25:31.808Z,0.70
2022-10-30T12:27:36.310Z,0.70
2022-10-30T12:30:13.521Z,0.63
2022-10-30T12:32:19.530Z,0.65
2022-10-30T12:34:23.798Z,0.60
2022-10-30T12:36:28.549Z,0.50
2022-10-30T12:38:36.494Z,0.70
2022-10-30T12:40:42.562Z,0.80
2022-10-30T12:42:54.825Z,0.88
2022-10-30T12:45:05.542Z,0.90
2022-10-30T12:47:22.838Z,0.70
2022-10-30T12:49:36.349Z,0.80
2022-10-30T12:52:09.224Z,0.80
2022-10-30T12:54:30.332Z,1.27
2022-10-30T12:56:38.559Z,1.15
2022-10-30T12:58:43.074Z,1.10
2022-10-30T13:00:57.411Z,1.42
2022-10-30T13:03:13.385Z,1.50
2022-10-30T13:05:33.467Z,1.17
2022-10-30T13:07:47.628Z,1.23
2022-10-30T13:10:28.883Z,1.02
2022-10-30T13:12:36.510Z,1.00
2022-10-30T13:14:51.894Z,0.88
2022-10-30T13:16:53.514Z,1.15
2022-10-30T13:19:01.096Z,1.00
2022-10-30T13:21:11.837Z,0.70
2022-10-30T13:23:21.827Z,0.85
2022-10-30T13:25:45.040Z,1.33
2022-10-30T13:27:53.970Z,1.02
2022-10-30T13:30:17.397Z,0.90
2022-10-30T13:32:52.938Z,1.13
2022-10-30T13:35:10.656Z,0.70
2022-10-30T13:37:19.876Z,0.80
2022-10-30T13:39:39.534Z,0.95
2022-10-30T13:42:09.887Z,0.93
2022-10-30T13:44:40.837Z,1.15
2022-10-30T13:46:48.297Z,1.15
2022-10-30T13:49:14.865Z,1.20
2022-10-30T13:51:40.633Z,0.90
2022-10-30T13:53:46.103Z,0.70
2022-10-30T13:55:49.217Z,1.50
2022-10-30T13:58:16.792Z,0.90
2022-10-30T14:00:21.099Z,0.60
2022-10-30T14:02:29.558Z,0.70
2022-10-30T14:04:38.922Z,1.10
2022-10-30T14:07:02.140Z,0.80
2022-10-30T14:09:24.834Z,0.70
2022-10-30T14:11:26.420Z,0.90
2022-10-30T14:13:28.760Z,1.13
2022-10-30T14:15:30.292Z,0.90
2022-10-30T14:17:31.886Z,0.80
2022-10-30T14:19:33.608Z,0.90
2022-10-30T14:21:54.181Z,1.33
2022-10-30T14:24:03.579Z,1.20
2022-10-30T14:26:12.148Z,0.98
2022-10-30T14:28:22.691Z,1.00
2022-10-30T14:30:27.427Z,0.98
2022-10-30T14:32:35.037Z,1.38
2022-10-30T14:34:51.820Z,0.80
2022-10-30T14:36:53.426Z,0.70
2022-10-30T14:39:13.368Z,0.70
2022-10-30T14:41:28.333Z,0.90
2022-10-30T14:43:52.923Z,1.00
2022-10-30T14:46:00.849Z,0.98
2022-10-30T14:48:02.376Z,0.73
2022-10-30T14:50:22.442Z,1.17
2022-10-30T14:52:53.409Z,0.70
2022-10-30T14:54:59.701Z,1.25
2022-10-30T14:57:01.363Z,0.65
2022-10-30T14:59:15.202Z,1.15
2022-10-30T15:01:33.687Z,0.80
2022-10-30T15:03:47.722Z,0.70
2022-10-30T15:06:03.010Z,0.77
2022-10-30T15:08:23.296Z,0.70
2022-10-30T15:10:26.294Z,0.75
2022-10-30T15:12:52.543Z,1.08
2022-10-30T15:14:57.957Z,1.02
2022-10-30T15:16:59.798Z,1.23
2022-10-30T15:19:09.103Z,0.75
2022-10-30T15:21:20.644Z,0.90
2022-10-30T15:23:30.153Z,0.73
2022-10-30T15:25:47.082Z,0.80
2022-10-30T15:27:51.837Z,0.70
2022-10-30T15:29:56.375Z,0.85
2022-10-30T15:32:15.526Z,0.75
2022-10-30T15:34:23.550Z,0.70
2022-10-30T15:36:43.112Z,1.02
2022-10-30T15:38:44.773Z,1.20
2022-10-30T15:40:46.420Z,1.08
2022-10-30T15:42:49.223Z,0.70
2022-10-30T15:44:51.877Z,0.77
2022-10-30T15:46:54.930Z,0.75
2022-10-30T15:48:59.538Z,1.02
2022-10-30T15:51:11.799Z,0.95
2022-10-30T15:53:20.832Z,0.82
2022-10-30T15:55:28.200Z,0.80
2022-10-30T16:00:14.997Z,1.35
2022-10-30T16:02:22.000Z,1.00
2022-10-30T16:04:27.973Z,0.90
2022-10-30T16:06:32.227Z,0.90
2022-10-30T16:08:43.695Z,1.00
2022-10-30T16:10:46.089Z,0.80
2022-10-30T16:12:48.056Z,1.05
2022-10-30T16:14:49.944Z,0.68
2022-10-30T16:16:52.265Z,1.30
2022-10-30T16:18:58.579Z,1.17
2022-10-30T16:21:08.911Z,1.10
2022-10-30T16:23:10.545Z,1.10
2022-10-30T16:25:14.433Z,1.15
2022-10-30T16:27:18.624Z,1.63
2022-10-30T16:29:25.049Z,1.30
2022-10-30T16:31:30.924Z,1.90
2022-10-30T16:33:34.327Z,1.70
2022-10-30T16:35:35.985Z,2.63
2022-10-30T16:37:41.120Z,2.00
2022-10-30T16:39:43.575Z,1.65
2022-10-30T16:41:45.341Z,1.70
2022-10-30T16:44:09.615Z,3.63
2022-10-30T16:46:14.196Z,2.95
2022-10-30T16:48:36.110Z,3.42
2022-10-30T16:50:38.553Z,3.53
2022-10-30T16:52:40.202Z,2.90
2022-10-30T16:54:48.037Z,2.67
2022-10-30T16:56:51.887Z,2.70
2022-10-30T16:58:56.294Z,2.30
2022-10-30T17:01:04.723Z,3.08
2022-10-30T17:03:11.333Z,2.63
2022-10-30T17:05:30.314Z,2.75
2022-10-30T17:07:31.990Z,2.42
2022-10-30T17:09:38.679Z,4.10
2022-10-30T17:11:46.164Z,2.65
2022-10-30T17:14:05.428Z,2.33
2022-10-30T17:16:18.983Z,2.65
2022-10-30T17:18:30.603Z,3.10
2022-10-30T17:20:32.246Z,3.97
2022-10-30T17:22:33.924Z,2.92
2022-10-30T17:24:37.160Z,2.75
2022-10-30T17:26:39.280Z,2.70
2022-10-30T17:28:41.289Z,1.98
2022-10-30T17:30:43.562Z,2.47
2022-10-30T17:32:45.489Z,2.40
2022-10-30T17:35:00.521Z,2.50
2022-10-30T17:37:02.412Z,2.72
2022-10-30T17:39:04.107Z,2.40
2022-10-30T17:41:07.195Z,2.22
2022-10-30T17:43:15.778Z,2.05
2022-10-30T17:45:17.791Z,2.45
2022-10-30T17:47:20.134Z,3.35
2022-10-30T17:49:28.123Z,4.25
2022-10-30T17:51:31.776Z,4.88
2022-10-30T17:53:33.417Z,4.15
2022-10-30T17:55:36.128Z,4.90
2022-10-30T17:57:37.761Z,5.13
2022-10-30T17:59:40.136Z,4.53
2022-10-30T18:01:42.354Z,3.78
2022-10-30T18:03:44.054Z,4.72
2022-10-30T18:05:46.189Z,5.43
2022-10-30T18:09:49.504Z,4.40
2022-10-30T18:11:51.139Z,3.85
2022-10-30T18:13:53.067Z,3.83
2022-10-30T18:15:57.594Z,2.90
2022-10-30T18:17:59.334Z,2.90
2022-10-30T18:20:00.914Z,2.15
2022-10-30T18:22:02.993Z,2.70
2022-10-30T18:24:11.942Z,2.83
2022-10-30T18:26:16.286Z,2.63
2022-10-30T18:28:18.383Z,2.45
2022-10-30T18:30:20.507Z,2.72
2022-10-30T18:32:22.136Z,3.22
2022-10-30T18:34:23.783Z,2.28
2022-10-30T18:36:26.013Z,2.80
2022-10-30T18:38:27.604Z,2.80
2022-10-30T18:40:30.279Z,3.15
2022-10-30T18:42:31.888Z,2.97
2022-10-30T18:44:33.509Z,2.38
2022-10-30T18:46:35.114Z,3.67
2022-10-30T18:48:36.877Z,2.88
2022-10-30T18:50:38.588Z,3.03
2022-10-30T18:52:40.205Z,3.10
2022-10-30T18:54:41.880Z,4.43
2022-10-30T18:56:43.743Z,3.95
2022-10-30T18:58:45.526Z,3.88
2022-10-30T19:01:10.400Z,3.72
2022-10-30T19:03:10.187Z,4.30
2022-10-30T19:05:23.136Z,3.75
2022-10-30T19:07:24.730Z,3.25
2022-10-30T19:09:26.395Z,3.75
2022-10-30T19:11:30.884Z,3.22
2022-10-30T19:13:33.439Z,3.95
2022-10-30T19:15:40.728Z,3.42
2022-10-30T19:17:42.371Z,3.78
2022-10-30T19:19:43.967Z,4.78
2022-10-30T19:21:45.542Z,4.30
2022-10-30T19:23:47.473Z,4.40
2022-10-30T19:25:49.562Z,5.03
2022-10-30T19:27:51.412Z,5.00
2022-10-30T19:29:52.996Z,4.93
2022-10-30T19:31:54.566Z,4.50
2022-10-30T19:33:57.487Z,4.20
2022-10-30T19:36:01.707Z,5.03
2022-10-30T19:38:07.971Z,4.20
2022-10-30T19:40:29.966Z,3.50
2022-10-30T19:42:31.560Z,3.42
2022-10-30T19:44:33.144Z,2.75
2022-10-30T19:46:35.030Z,3.08
2022-10-30T19:50:59.145Z,2.20
2022-10-30T19:53:02.246Z,2.60
2022-10-30T19:55:04.350Z,2.33
2022-10-30T19:57:08.537Z,2.78
2022-10-30T19:59:12.283Z,2.30
2022-10-30T20:01:14.288Z,1.90
2022-10-30T20:03:16.848Z,2.10
2022-10-30T20:05:19.379Z,2.20
2022-10-30T20:07:20.962Z,1.75
2022-10-30T20:09:23.790Z,2.50
2022-10-30T20:11:25.340Z,2.75
2022-10-30T20:13:27.954Z,2.88
2022-10-30T20:15:29.941Z,1.35
2022-10-30T20:17:31.521Z,1.70
2022-10-30T20:19:33.162Z,2.38
2022-10-30T20:21:34.702Z,2.15
2022-10-30T20:23:36.786Z,2.30
2022-10-30T20:25:38.486Z,2.53
2022-10-30T20:27:41.739Z,2.83
2022-10-30T20:29:43.513Z,3.45
2022-10-30T20:31:45.161Z,4.22
2022-10-30T20:33:46.788Z,3.08
2022-10-30T20:35:49.441Z,3.08
2022-10-30T20:38:03.716Z,2.30
2022-10-30T20:40:14.557Z,3.35
2022-10-30T20:42:19.306Z,2.28
2022-10-30T20:44:20.902Z,3.15
2022-10-30T20:46:22.568Z,3.03
2022-10-30T20:48:24.150Z,3.33
2022-10-30T20:50:25.772Z,3.47
2022-10-30T20:52:27.396Z,2.60
2022-10-30T20:54:29.013Z,2.53
2022-10-30T20:56:30.584Z,2.58
2022-10-30T20:58:32.271Z,4.22
2022-10-30T21:00:33.984Z,2.72
2022-10-30T21:02:35.780Z,2.75
2022-10-30T21:04:37.497Z,2.50
2022-10-30T21:06:39.178Z,2.65
2022-10-30T21:08:40.871Z,3.25
2022-10-30T21:10:42.938Z,2.33
2022-10-30T21:12:44.644Z,2.13
2022-10-30T21:14:46.324Z,2.33
2022-10-30T21:16:48.053Z,3.15
2022-10-30T21:18:53.151Z,2.85
2022-10-30T21:20:54.731Z,2.30
2022-10-30T21:22:56.280Z,2.92
2022-10-30T21:24:57.859Z,3.03
2022-10-30T21:26:59.447Z,2.25
2022-10-30T21:29:01.716Z,2.00
2022-10-30T21:31:06.569Z,1.88
2022-10-30T21:33:08.242Z,1.98
2022-10-30T21:35:10.058Z,1.70
2022-10-30T21:37:12.876Z,2.05
2022-10-30T21:39:14.501Z,2.50
2022-10-30T21:41:20.814Z,2.63
2022-10-30T21:43:22.436Z,3.03
2022-10-30T21:45:24.034Z,1.85
2022-10-30T21:47:25.673Z,2.33
2022-10-30T21:49:27.289Z,2.17
2022-10-30T21:51:29.047Z,2.28
2022-10-30T21:53:30.887Z,2.67
2022-10-30T21:55:32.487Z,2.38
2022-10-30T21:57:34.388Z,2.05
2022-10-30T21:59:36.055Z,2.08
2022-10-30T22:01:39.395Z,1.67
2022-10-30T22:03:41.122Z,2.55
2022-10-30T22:05:42.705Z,2.45
2022-10-30T22:07:44.288Z,2.05
2022-10-30T22:09:46.570Z,3.13
2022-10-30T22:11:48.172Z,2.28
2022-10-30T22:13:54.498Z,2.05
2022-10-30T22:15:56.275Z,2.00
2022-10-30T22:17:58.514Z,2.55
2022-10-30T22:20:00.436Z,1.90
2022-10-30T22:22:02.009Z,2.10
2022-10-30T22:24:04.098Z,3.13
2022-10-30T22:26:07.805Z,1.88
2022-10-30T22:28:09.491Z,1.70
2022-10-30T22:30:11.378Z,2.15
2022-10-30T22:32:13.762Z,2.40
2022-10-30T22:34:15.383Z,2.00
2022-10-30T22:36:25.735Z,2.33
2022-10-30T22:38:27.363Z,2.20
2022-10-30T22:40:28.935Z,1.98
2022-10-30T22:42:30.514Z,3.55
2022-10-30T22:44:32.117Z,1.75
2022-10-30T22:46:33.697Z,2.25
2022-10-30T22:48:35.352Z,2.17
2022-10-30T22:50:37.968Z,2.53
2022-10-30T22:52:39.558Z,2.10
2022-10-30T22:54:41.177Z,1.90
2022-10-30T22:56:42.969Z,1.95
2022-10-30T22:58:45.917Z,1.88
2022-10-30T23:00:47.871Z,2.35
2022-10-30T23:02:49.526Z,2.65
2022-10-30T23:04:51.192Z,2.58
2022-10-30T23:06:52.763Z,2.28
2022-10-30T23:08:56.254Z,2.95
2022-10-30T23:10:58.020Z,1.90
2022-10-30T23:12:59.923Z,2.10
2022-10-30T23:15:01.795Z,2.33
2022-10-30T23:17:03.427Z,1.83
2022-10-30T23:19:05.213Z,2.22
2022-10-30T23:21:12.628Z,2.40
2022-10-30T23:23:14.600Z,2.42
2022-10-30T23:25:16.239Z,2.40
2022-10-30T23:27:20.958Z,1.90
2022-10-30T23:29:22.680Z,2.63
2022-10-30T23:31:35.998Z,1.98
2022-10-30T23:33:37.659Z,2.72
2022-10-30T23:35:39.246Z,2.95
2022-10-30T23:37:40.864Z,2.60
2022-10-30T23:39:42.540Z,2.90
2022-10-30T23:41:44.492Z,2.53
2022-10-30T23:43:46.145Z,3.65
2022-10-30T23:45:47.801Z,3.28
2022-10-30T23:47:49.704Z,2.47
2022-10-30T23:49:51.325Z,2.90
2022-10-30T23:51:52.990Z,2.80
2022-10-30T23:53:54.797Z,2.42
2022-10-30T23:55:56.472Z,2.08
2022-10-30T23:57:58.474Z,2.20
